Time;durP1;ratioP1;P1;durP2;ratioP2;P2;SDS_P1;SDS_P2;PMS_P1;PMS_P2;Temp;Humidity;BMP_temperature;BMP_pressure;BME280_temperature;BME280_humidity;BME280_pressure;Samples;Min_cycle;Max_cycle;Signal;HPM_P1;HPM_P2
2022/01/24 00:00:09;;;;;;;12.00;8.80;;;;;;;5.36;58.99;98181.53;5068695;28;20900;-72
2022/01/24 00:02:37;;;;;;;12.40;7.93;;;;;;;5.34;59.44;98177.38;5072831;28;20444;-71
2022/01/24 00:05:02;;;;;;;13.27;8.77;;;;;;;5.37;58.87;98178.03;5061841;28;20430;-71
2022/01/24 00:07:28;;;;;;;13.70;8.63;;;;;;;5.35;59.13;98166.88;5072855;28;20747;-71
2022/01/24 00:09:57;;;;;;;12.27;8.60;;;;;;;5.35;59.31;98163.47;5064977;28;20184;-70
2022/01/24 00:15:08;;;;;;;13.20;8.70;;;;;;;5.12;60.17;98149.28;5056051;28;20428;-70
2022/01/24 00:17:40;;;;;;;13.20;8.73;;;;;;;5.19;59.91;98142.75;5073129;28;20825;-73
2022/01/24 00:28:10;;;;;;;17.10;9.07;;;;;;;5.18;59.06;98125.50;5055067;28;20415;-71
2022/01/24 00:30:36;;;;;;;13.93;9.00;;;;;;;5.16;59.40;98135.19;5072536;28;20417;-69
2022/01/24 00:33:01;;;;;;;12.90;9.00;;;;;;;5.12;58.97;98125.88;5077424;28;20198;-70
2022/01/24 00:35:27;;;;;;;13.50;8.27;;;;;;;5.08;59.25;98136.47;5061494;28;20424;-71
2022/01/24 00:37:53;;;;;;;15.97;8.50;;;;;;;5.06;59.69;98130.53;5043036;28;20261;-70
2022/01/24 00:40:19;;;;;;;12.67;8.77;;;;;;;5.03;59.36;98133.34;5054108;28;20167;-70
2022/01/24 00:42:54;;;;;;;17.50;9.40;;;;;;;4.97;59.78;98125.91;5071503;28;20197;-70
2022/01/24 00:55:58;;;;;;;12.90;8.67;;;;;;;5.01;60.72;98111.81;5063269;28;20514;-71
2022/01/24 00:58:23;;;;;;;15.13;9.47;;;;;;;4.99;60.73;98120.59;5070807;28;20877;-72
2022/01/24 01:00:49;;;;;;;19.97;9.87;;;;;;;4.97;60.24;98114.69;5069489;28;20456;-70
2022/01/24 01:03:15;;;;;;;16.70;9.77;;;;;;;4.97;60.48;98114.69;5070761;28;20251;-71
2022/01/24 01:18:48;;;;;;;16.43;8.60;;;;;;;4.96;60.38;98126.84;5071151;28;20425;-70
2022/01/24 01:21:15;;;;;;;19.40;9.83;;;;;;;4.92;60.35;98138.31;5071799;28;20951;-71
2022/01/24 01:23:50;;;;;;;15.57;9.60;;;;;;;4.90;60.78;98137.63;5054148;28;20327;-73
2022/01/24 01:26:37;;;;;;;14.33;9.27;;;;;;;4.82;60.73;98139.81;5071353;28;20483;-70
2022/01/24 01:29:30;;;;;;;18.07;10.27;;;;;;;4.86;60.96;98143.91;5072079;28;20912;-70
2022/01/24 01:37:14;;;;;;;14.90;9.77;;;;;;;4.71;61.53;98138.72;5055281;28;20795;-70
2022/01/24 01:40:21;;;;;;;13.60;9.73;;;;;;;4.72;61.14;98140.38;5055031;28;20182;-72
2022/01/24 01:54:32;;;;;;;14.90;9.47;;;;;;;4.62;61.91;98134.09;5055756;28;20479;-70
2022/01/24 01:56:20;;;;;;;16.13;10.63;;;;;;;4.70;61.29;98131.84;5070689;28;20957;-70
2022/01/24 01:58:46;;;;;;;14.00;8.97;;;;;;;4.76;61.47;98126.31;5070909;28;20507;-71
2022/01/24 02:01:11;;;;;;;17.50;10.30;;;;;;;4.67;61.50;98126.00;5072454;28;20202;-70
2022/01/24 02:03:37;;;;;;;19.53;10.40;;;;;;;4.65;61.60;98133.06;5075666;28;20202;-70
2022/01/24 02:06:03;;;;;;;14.37;9.70;;;;;;;4.60;61.56;98133.34;5052446;28;20184;-71
2022/01/24 02:08:30;;;;;;;17.30;9.73;;;;;;;4.55;61.42;98127.56;5069931;28;20219;-71
2022/01/24 02:10:58;;;;;;;14.43;9.60;;;;;;;4.55;61.78;98128.41;5053519;28;20180;-71
2022/01/24 02:13:24;;;;;;;16.53;10.90;;;;;;;4.57;61.50;98138.69;5065532;28;20423;-71
2022/01/24 02:21:41;;;;;;;18.23;9.97;;;;;;;4.52;61.68;98144.19;5089613;28;20539;-71
2022/01/24 02:24:09;;;;;;;13.77;9.80;;;;;;;4.53;61.36;98135.47;5088966;28;20434;-71
2022/01/24 02:26:34;;;;;;;15.67;10.30;;;;;;;4.56;61.51;98124.91;5071986;28;20503;-70
2022/01/24 02:29:17;;;;;;;13.13;8.87;;;;;;;4.51;61.25;98131.28;5087828;28;20514;-71
2022/01/24 02:31:48;;;;;;;13.03;8.73;;;;;;;4.41;61.84;98134.41;5089024;28;20209;-71
2022/01/24 02:34:40;;;;;;;14.50;10.10;;;;;;;4.49;62.27;98133.16;5088763;28;20424;-71
2022/01/24 02:37:09;;;;;;;14.43;9.60;;;;;;;4.53;61.59;98124.25;5073480;28;20505;-76
2022/01/24 02:53:03;;;;;;;14.43;9.67;;;;;;;4.15;61.78;98113.44;5076861;28;20495;-72
2022/01/24 02:55:29;;;;;;;15.87;9.10;;;;;;;3.68;63.67;98127.38;5075484;28;20459;-72
2022/01/24 02:57:55;;;;;;;17.13;10.27;;;;;;;3.56;64.06;98120.28;5039957;28;20955;-74
2022/01/24 03:00:21;;;;;;;16.60;10.33;;;;;;;3.40;64.43;98113.38;5049442;28;20775;-71
2022/01/24 03:02:46;;;;;;;16.23;10.40;;;;;;;3.45;64.52;98115.72;5065759;28;20194;-73
2022/01/24 03:05:12;;;;;;;17.97;11.03;;;;;;;3.06;64.60;98110.00;5062588;28;20689;-72
2022/01/24 03:07:38;;;;;;;17.33;11.20;;;;;;;3.30;64.73;98107.84;5072558;28;20178;-72
2022/01/24 03:10:12;;;;;;;19.10;11.37;;;;;;;3.30;64.62;98102.69;5057376;28;20323;-73
2022/01/24 03:12:42;;;;;;;18.53;10.80;;;;;;;3.58;64.14;98110.66;5073523;28;20212;-72
2022/01/24 03:15:08;;;;;;;16.83;11.23;;;;;;;3.62;64.13;98102.63;5063069;28;20417;-72
2022/01/24 03:17:34;;;;;;;15.47;11.00;;;;;;;3.39;64.19;98096.16;5063368;28;20421;-72
2022/01/24 03:19:59;;;;;;;20.23;11.50;;;;;;;3.58;63.37;98095.09;5073360;28;21031;-72
2022/01/24 03:22:25;;;;;;;18.07;11.00;;;;;;;3.24;65.06;98092.63;5074490;28;20194;-72
2022/01/24 03:24:50;;;;;;;21.93;12.30;;;;;;;3.29;64.71;98097.56;5073920;28;20202;-72
2022/01/24 03:27:16;;;;;;;18.23;11.27;;;;;;;3.39;64.44;98090.97;5067285;28;20231;-71
2022/01/24 03:29:42;;;;;;;33.30;19.27;;;;;;;3.20;65.24;98091.97;5073829;28;20179;-71
2022/01/24 03:32:07;;;;;;;33.73;16.97;;;;;;;3.16;65.54;98095.63;5072877;28;20210;-72
2022/01/24 03:34:33;;;;;;;25.70;16.20;;;;;;;2.90;66.68;98087.53;5068948;28;20528;-71
2022/01/24 03:36:59;;;;;;;26.77;14.17;;;;;;;3.27;65.10;98078.69;5044846;28;20221;-72
2022/01/24 03:39:25;;;;;;;23.97;13.53;;;;;;;3.47;65.02;98091.38;5071043;28;20208;-72
2022/01/24 03:41:50;;;;;;;28.20;14.70;;;;;;;3.52;64.33;98086.78;5056981;28;20198;-71
2022/01/24 03:44:18;;;;;;;36.07;18.00;;;;;;;3.17;64.97;98091.31;5072884;28;20955;-71
2022/01/24 03:52:08;;;;;;;63.80;28.47;;;;;;;3.16;64.80;98098.22;5073217;28;20878;-72
2022/01/24 03:54:35;;;;;;;41.07;21.27;;;;;;;3.35;65.29;98097.22;5072500;28;20510;-71
2022/01/24 03:57:01;;;;;;;40.53;21.00;;;;;;;3.48;64.78;98093.03;5072813;28;20657;-71
2022/01/24 03:59:29;;;;;;;35.17;19.70;;;;;;;3.43;64.57;98092.44;5056301;28;20420;-73
2022/01/24 04:01:55;;;;;;;34.50;19.23;;;;;;;3.53;64.06;98087.59;5057650;28;20968;-71
2022/01/24 04:04:20;;;;;;;32.20;19.00;;;;;;;3.52;63.67;98086.78;5053539;28;20417;-72
2022/01/24 04:06:48;;;;;;;31.50;19.67;;;;;;;3.61;64.30;98082.81;5062486;28;20194;-71
2022/01/24 04:09:13;;;;;;;30.53;19.07;;;;;;;3.58;63.36;98074.38;5079096;28;20174;-71
2022/01/24 04:11:40;;;;;;;31.80;20.10;;;;;;;3.67;63.71;98063.47;5071256;28;20467;-72
2022/01/24 04:14:27;;;;;;;27.73;16.13;;;;;;;3.69;63.74;98069.41;5070887;28;20629;-71
2022/01/24 04:17:06;;;;;;;24.50;15.00;;;;;;;3.72;63.49;98071.81;5060680;28;20538;-71
2022/01/24 04:22:08;;;;;;;26.67;18.57;;;;;;;3.52;63.17;98076.41;5072903;28;20494;-72
2022/01/24 04:24:34;;;;;;;32.43;23.67;;;;;;;3.43;63.90;98082.06;5071777;28;20901;-72
2022/01/24 04:27:00;;;;;;;32.77;23.77;;;;;;;3.54;63.72;98084.09;5071097;28;20428;-71
2022/01/24 04:29:25;;;;;;;27.30;19.80;;;;;;;3.56;63.64;98086.56;5072434;28;20557;-71
2022/01/24 04:31:51;;;;;;;23.53;15.70;;;;;;;3.39;63.24;98085.78;5071612;28;20247;-71
2022/01/24 04:34:17;;;;;;;22.67;14.50;;;;;;;3.35;63.79;98092.88;5072683;28;20660;-71
2022/01/24 04:36:43;;;;;;;20.50;13.20;;;;;;;3.54;63.77;98073.72;5055371;28;20622;-72
2022/01/24 04:39:09;;;;;;;19.90;12.63;;;;;;;3.59;63.17;98071.66;5072064;28;20179;-72
2022/01/24 04:41:38;;;;;;;18.23;11.70;;;;;;;3.66;63.68;98077.34;5037970;28;20879;-71
2022/01/24 04:47:12;;;;;;;20.13;11.60;;;;;;;3.74;63.01;98082.94;5070976;28;20874;-71
2022/01/24 04:55:06;;;;;;;17.20;10.57;;;;;;;3.78;62.53;98076.66;5047859;28;20861;-72
2022/01/24 04:57:32;;;;;;;19.63;12.13;;;;;;;3.79;62.54;98078.31;5072516;28;20512;-72
2022/01/24 05:00:00;;;;;;;17.87;11.50;;;;;;;3.78;62.95;98076.66;5072731;28;20453;-72
2022/01/24 05:02:26;;;;;;;15.53;10.27;;;;;;;3.77;62.73;98082.78;5070964;28;20593;-72
2022/01/24 05:04:56;;;;;;;15.77;10.23;;;;;;;3.67;62.76;98084.22;5060824;28;20413;-72
2022/01/24 05:07:23;;;;;;;20.73;11.00;;;;;;;3.59;62.19;98087.22;5072248;28;20794;-72
2022/01/24 05:09:57;;;;;;;16.40;11.43;;;;;;;3.59;62.88;98081.22;5061716;28;20445;-71
2022/01/24 05:25:51;;;;;;;18.37;11.50;;;;;;;3.51;62.79;98092.88;5063885;28;20417;-71
2022/01/24 05:28:17;;;;;;;20.57;13.17;;;;;;;3.49;63.60;98097.31;5074795;28;20428;-72
2022/01/24 05:30:42;;;;;;;23.20;14.03;;;;;;;3.49;63.61;98107.66;5075849;28;21072;-72
2022/01/24 05:33:08;;;;;;;19.20;11.60;;;;;;;3.48;63.75;98100.81;5054605;28;20202;-72
2022/01/24 05:35:34;;;;;;;21.33;12.37;;;;;;;3.32;63.76;98105.16;5069971;28;20181;-72
2022/01/24 05:38:00;;;;;;;19.93;12.63;;;;;;;3.15;64.38;98101.72;5067851;28;20174;-72
2022/01/24 05:40:25;;;;;;;18.20;12.20;;;;;;;3.04;64.59;98104.06;5073220;28;20498;-72
2022/01/24 05:42:51;;;;;;;18.07;12.60;;;;;;;3.13;64.70;98107.94;5071548;28;20198;-72
2022/01/24 05:45:17;;;;;;;22.87;11.93;;;;;;;3.23;64.43;98109.09;5070057;28;20178;-71
2022/01/24 05:47:42;;;;;;;18.47;12.10;;;;;;;3.26;64.06;98106.34;5071659;28;20606;-72
2022/01/24 05:50:08;;;;;;;20.30;11.33;;;;;;;2.83;65.29;98106.91;5070016;28;20179;-71
2022/01/24 05:52:34;;;;;;;16.80;11.07;;;;;;;2.86;65.18;98111.94;5070325;28;20263;-73
2022/01/24 05:54:59;;;;;;;17.17;11.13;;;;;;;2.90;65.12;98110.84;5063844;28;20179;-72
2022/01/24 05:57:25;;;;;;;22.23;12.70;;;;;;;2.38;65.57;98109.22;5052629;28;20606;-72
2022/01/24 05:59:51;;;;;;;17.77;12.03;;;;;;;2.29;65.88;98112.28;5052859;28;20186;-72
2022/01/24 06:02:16;;;;;;;18.67;11.53;;;;;;;2.26;66.01;98115.03;5051763;28;20579;-72
2022/01/24 06:04:42;;;;;;;17.87;11.47;;;;;;;2.68;65.68;98110.31;5070977;28;20182;-72
2022/01/24 06:07:08;;;;;;;22.90;13.40;;;;;;;2.79;64.94;98113.16;5069533;28;20186;-72
2022/01/24 06:09:33;;;;;;;20.77;12.43;;;;;;;2.84;64.63;98116.34;5069316;28;20182;-72
2022/01/24 06:11:59;;;;;;;18.23;11.30;;;;;;;2.98;64.29;98115.59;5070598;28;20232;-72
2022/01/24 06:14:25;;;;;;;21.00;11.93;;;;;;;2.91;64.76;98122.03;5055943;28;20278;-73
2022/01/24 06:16:51;;;;;;;20.03;11.60;;;;;;;3.00;64.49;98113.78;5065301;28;21150;-72
2022/01/24 06:19:16;;;;;;;21.20;12.80;;;;;;;3.03;63.99;98112.75;5070227;28;20702;-72
2022/01/24 06:21:44;;;;;;;17.77;11.37;;;;;;;2.89;64.64;98116.97;5073122;28;20273;-73
2022/01/24 06:24:10;;;;;;;18.23;11.27;;;;;;;2.96;64.33;98114.03;5067595;28;20184;-71
2022/01/24 06:26:36;;;;;;;23.47;13.53;;;;;;;2.98;64.34;98127.72;5073817;28;20458;-71
2022/01/24 06:29:02;;;;;;;23.23;15.53;;;;;;;3.10;63.86;98127.06;5074508;28;20486;-73
2022/01/24 06:31:28;;;;;;;32.10;16.17;;;;;;;3.14;63.84;98126.00;5074339;28;20214;-75
2022/01/24 06:33:54;;;;;;;38.13;21.70;;;;;;;3.12;63.88;98130.41;5067452;28;20989;-70
2022/01/24 06:36:19;;;;;;;41.20;24.37;;;;;;;3.11;63.87;98128.75;5066359;28;20193;-72
2022/01/24 06:38:45;;;;;;;35.30;22.17;;;;;;;3.16;63.95;98124.13;5074179;28;20200;-73
2022/01/24 06:41:10;;;;;;;36.27;21.87;;;;;;;3.20;63.55;98127.41;5072833;28;20677;-73
2022/01/24 06:43:36;;;;;;;29.30;17.53;;;;;;;3.20;63.80;98117.06;5040025;28;20835;-72
2022/01/24 06:46:02;;;;;;;25.67;15.13;;;;;;;3.14;63.70;98127.75;5072432;28;20187;-72
2022/01/24 06:48:28;;;;;;;26.10;15.43;;;;;;;3.18;63.47;98124.91;5073964;28;20623;-72
2022/01/24 06:50:54;;;;;;;23.60;14.50;;;;;;;3.21;63.53;98121.31;5072602;28;20185;-72
2022/01/24 06:53:19;;;;;;;20.40;13.43;;;;;;;3.18;63.38;98126.66;5072135;28;20457;-72
2022/01/24 06:55:45;;;;;;;23.00;13.97;;;;;;;3.22;63.79;98133.34;5060687;28;20471;-73
2022/01/24 06:58:11;;;;;;;21.50;13.50;;;;;;;3.28;63.49;98140.78;5073105;28;20217;-72
2022/01/24 07:00:37;;;;;;;21.30;13.83;;;;;;;3.31;63.72;98129.41;5046457;28;20179;-73
2022/01/24 07:03:02;;;;;;;24.53;14.80;;;;;;;3.36;63.85;98138.59;5074054;28;20203;-72
2022/01/24 07:05:29;;;;;;;24.53;15.70;;;;;;;3.41;63.83;98145.28;5071706;28;20269;-73
2022/01/24 07:07:57;;;;;;;22.80;13.40;;;;;;;3.36;64.06;98137.78;5043555;28;20580;-71
2022/01/24 07:10:24;;;;;;;23.33;14.13;;;;;;;3.46;63.78;98144.13;5059680;28;20432;-72
2022/01/24 07:12:51;;;;;;;24.73;14.80;;;;;;;3.49;64.11;98146.56;5039149;28;20895;-73
2022/01/24 07:15:19;;;;;;;22.10;14.10;;;;;;;3.51;63.94;98147.31;5072466;28;20506;-73
2022/01/24 07:20:14;;;;;;;27.30;15.13;;;;;;;3.56;64.13;98154.84;5074185;28;20428;-71
2022/01/24 07:22:39;;;;;;;26.97;15.33;;;;;;;3.59;63.83;98164.19;5074777;28;20444;-72
2022/01/24 07:25:05;;;;;;;23.77;14.13;;;;;;;3.59;63.52;98159.81;5045859;28;20456;-73
2022/01/24 07:27:31;;;;;;;34.40;16.30;;;;;;;3.60;63.33;98168.44;5066771;28;20183;-73
2022/01/24 07:29:58;;;;;;;33.33;15.07;;;;;;;3.58;63.57;98168.53;5072800;28;20206;-72
2022/01/24 07:32:23;;;;;;;26.10;15.03;;;;;;;3.60;63.86;98165.84;5071974;28;20647;-73
2022/01/24 07:34:50;;;;;;;28.70;15.67;;;;;;;3.63;63.33;98165.69;5055704;28;20463;-71
2022/01/24 07:37:16;;;;;;;27.73;16.13;;;;;;;3.65;63.87;98166.44;5063667;28;20190;-71
2022/01/24 07:39:42;;;;;;;31.63;15.00;;;;;;;3.75;63.78;98167.59;5071378;28;20425;-73
2022/01/24 07:42:16;;;;;;;27.10;15.97;;;;;;;3.84;63.77;98166.25;5058491;28;20192;-71
2022/01/24 07:44:42;;;;;;;22.30;15.40;;;;;;;3.98;64.03;98166.28;5069174;28;20417;-71
2022/01/24 07:47:08;;;;;;;27.20;16.10;;;;;;;4.05;64.10;98169.38;5085234;28;20938;-70
2022/01/24 07:49:34;;;;;;;23.63;15.70;;;;;;;4.15;63.36;98175.72;5071202;28;20423;-71
2022/01/24 07:52:01;;;;;;;27.33;16.03;;;;;;;4.25;63.88;98181.19;5028191;28;20204;-70
2022/01/24 07:54:26;;;;;;;25.70;16.57;;;;;;;4.24;63.34;98176.13;5039802;28;20424;-72
2022/01/24 07:56:52;;;;;;;26.30;16.77;;;;;;;4.35;63.31;98178.91;5057156;28;20490;-70
2022/01/24 07:59:19;;;;;;;25.30;16.93;;;;;;;4.36;63.81;98178.00;5062544;28;20217;-71
2022/01/24 08:01:46;;;;;;;38.60;22.53;;;;;;;4.11;63.92;98182.00;5055408;28;20225;-72
2022/01/24 08:04:11;;;;;;;30.27;19.17;;;;;;;4.31;63.69;98187.78;5063279;28;20847;-70
2022/01/24 08:06:37;;;;;;;38.93;22.13;;;;;;;4.51;63.41;98194.44;5069543;28;20421;-70
2022/01/24 08:09:05;;;;;;;47.90;28.00;;;;;;;4.61;62.58;98189.53;5059580;28;20398;-71
2022/01/24 08:11:31;;;;;;;34.97;21.77;;;;;;;4.61;63.10;98184.34;5070325;28;20219;-75
2022/01/24 08:13:57;;;;;;;45.30;25.20;;;;;;;4.55;62.81;98189.88;5081711;28;20433;-72
2022/01/24 08:16:23;;;;;;;36.77;20.57;;;;;;;4.67;63.08;98194.34;5051563;28;20613;-73
2022/01/24 08:18:51;;;;;;;27.17;17.13;;;;;;;4.61;63.29;98200.75;5072188;28;20202;-70
2022/01/24 08:21:16;;;;;;;28.80;17.17;;;;;;;4.55;63.36;98200.28;5070584;28;20448;-70
2022/01/24 08:23:42;;;;;;;26.40;17.30;;;;;;;4.51;63.62;98199.63;5058096;28;21152;-70
2022/01/24 08:26:08;;;;;;;31.10;19.40;;;;;;;4.59;63.42;98196.59;5054864;28;20274;-72
2022/01/24 08:28:34;;;;;;;30.40;19.80;;;;;;;4.50;63.52;98197.13;5050988;28;20176;-71
2022/01/24 08:31:00;;;;;;;41.27;22.30;;;;;;;4.76;62.83;98199.03;5069796;28;20202;-71
2022/01/24 08:33:25;;;;;;;29.37;19.23;;;;;;;4.99;62.62;98183.81;5068179;28;20471;-70
2022/01/24 08:35:51;;;;;;;39.47;23.60;;;;;;;4.99;62.22;98181.22;5065281;28;20186;-71
2022/01/24 08:38:17;;;;;;;33.30;20.47;;;;;;;5.01;62.00;98175.91;5066963;28;20182;-71
2022/01/24 08:40:46;;;;;;;29.93;20.33;;;;;;;5.18;61.10;98177.47;5070691;28;20801;-70
2022/01/24 08:43:12;;;;;;;33.77;21.20;;;;;;;5.12;61.45;98183.88;5070020;28;20444;-69
2022/01/24 08:48:08;;;;;;;26.30;18.00;;;;;;;5.27;60.83;98174.34;5069682;28;20676;-73
2022/01/24 08:50:35;;;;;;;26.07;16.93;;;;;;;5.29;61.00;98177.66;5066834;28;20432;-72
2022/01/24 08:53:02;;;;;;;44.07;23.83;;;;;;;5.30;61.30;98176.72;5057497;28;20250;-70
2022/01/24 08:55:33;;;;;;;24.57;17.00;;;;;;;5.51;60.71;98173.72;5070348;28;20421;-72
2022/01/24 08:58:01;;;;;;;29.40;17.07;;;;;;;5.62;59.97;98181.69;5066622;28;20476;-71
2022/01/24 09:00:27;;;;;;;27.97;17.03;;;;;;;5.47;59.95;98182.63;5057850;28;20874;-72
2022/01/24 09:02:52;;;;;;;31.40;18.87;;;;;;;5.67;60.00;98179.59;5059911;28;20455;-72
2022/01/24 09:05:21;;;;;;;22.23;14.53;;;;;;;5.50;59.74;98187.66;5055615;28;20438;-71
2022/01/24 09:07:47;;;;;;;28.80;16.50;;;;;;;5.33;60.75;98186.94;5041311;28;20650;-71
2022/01/24 09:10:12;;;;;;;26.83;15.07;;;;;;;5.77;59.14;98181.63;5051496;28;20474;-71
2022/01/24 09:12:39;;;;;;;21.97;15.23;;;;;;;6.03;58.95;98179.16;5062991;28;20701;-71
2022/01/24 09:15:05;;;;;;;30.43;18.20;;;;;;;6.04;58.82;98171.25;5065352;28;20217;-72
2022/01/24 09:17:30;;;;;;;37.03;21.80;;;;;;;6.18;58.13;98178.13;5068073;28;20520;-71
2022/01/24 09:19:56;;;;;;;34.57;18.10;;;;;;;6.03;58.42;98172.19;5067893;28;20413;-72
2022/01/24 09:22:23;;;;;;;30.10;18.37;;;;;;;6.14;57.70;98164.50;5073281;28;20213;-71
2022/01/24 09:24:48;;;;;;;30.47;17.80;;;;;;;6.25;57.46;98158.59;5072654;28;20178;-71
2022/01/24 09:27:15;;;;;;;23.87;16.13;;;;;;;6.41;57.48;98162.78;5073594;28;20484;-70
2022/01/24 09:29:41;;;;;;;26.57;15.70;;;;;;;5.91;58.43;98176.38;5056097;28;20178;-71
2022/01/24 09:32:07;;;;;;;28.40;19.57;;;;;;;6.09;58.75;98178.75;5069452;28;20471;-71
2022/01/24 09:34:33;;;;;;;22.40;16.10;;;;;;;6.17;57.82;98186.91;5071406;28;20182;-71
2022/01/24 09:36:58;;;;;;;27.20;16.77;;;;;;;6.05;57.71;98192.91;5062015;28;20783;-71
2022/01/24 09:39:24;;;;;;;26.00;16.87;;;;;;;6.40;57.24;98181.94;5053840;28;20190;-70
2022/01/24 09:41:50;;;;;;;36.33;22.03;;;;;;;5.90;58.40;98182.53;5058414;28;20195;-73
2022/01/24 09:44:16;;;;;;;23.33;16.50;;;;;;;5.75;58.49;98186.09;5052354;28;20196;-70
2022/01/24 09:46:43;;;;;;;25.30;16.70;;;;;;;5.73;59.03;98177.56;5054322;28;20429;-70
2022/01/24 09:49:10;;;;;;;20.43;12.80;;;;;;;5.79;58.22;98179.78;5073727;28;20232;-71
2022/01/24 09:51:37;;;;;;;24.10;16.07;;;;;;;6.18;57.44;98182.53;5074138;28;20782;-71
2022/01/24 09:54:08;;;;;;;20.67;14.50;;;;;;;6.35;56.62;98174.44;5074591;28;20428;-71
2022/01/24 09:56:34;;;;;;;26.73;18.57;;;;;;;5.85;58.18;98181.97;5075554;28;20429;-70
2022/01/24 09:59:01;;;;;;;12.93;10.70;;;;;;;6.23;56.61;98176.06;5072144;28;20481;-70
2022/01/24 10:01:27;;;;;;;20.73;14.83;;;;;;;6.33;56.96;98180.66;5058381;28;20453;-70
2022/01/24 10:04:15;;;;;;;20.07;14.53;;;;;;;6.41;56.89;98174.03;5062184;28;20433;-71
2022/01/24 10:07:06;;;;;;;16.73;12.03;;;;;;;6.34;56.37;98177.13;5048202;28;20603;-71
2022/01/24 10:09:39;;;;;;;19.40;14.50;;;;;;;6.19;56.96;98177.19;5059189;28;20473;-71
2022/01/24 10:17:53;;;;;;;17.90;11.90;;;;;;;6.90;54.89;98189.88;5074865;28;20433;-72
2022/01/24 10:20:33;;;;;;;13.30;9.47;;;;;;;6.98;55.04;98177.16;5050114;28;20491;-71
2022/01/24 10:23:26;;;;;;;13.10;10.20;;;;;;;6.98;54.84;98184.16;5070504;28;20619;-72
2022/01/24 10:26:03;;;;;;;11.10;8.60;;;;;;;7.08;54.29;98177.34;5073511;28;20850;-71
2022/01/24 10:28:37;;;;;;;11.47;9.17;;;;;;;7.01;54.10;98176.13;5072522;28;20454;-72
2022/01/24 10:31:09;;;;;;;12.80;9.57;;;;;;;7.19;53.50;98174.81;5057554;28;20549;-71
2022/01/24 10:34:01;;;;;;;10.90;9.10;;;;;;;6.84;54.79;98167.69;5061942;28;20495;-72
2022/01/24 10:36:35;;;;;;;13.07;9.80;;;;;;;6.88;54.34;98165.69;5067156;28;20843;-71
2022/01/24 10:39:12;;;;;;;11.43;8.87;;;;;;;6.96;54.41;98171.22;5073541;28;20796;-71
2022/01/24 10:41:53;;;;;;;10.73;8.77;;;;;;;6.76;54.25;98170.81;5068360;28;20439;-71
2022/01/24 10:44:34;;;;;;;11.97;8.60;;;;;;;6.99;54.12;98155.38;5073486;28;20431;-71
2022/01/24 10:47:12;;;;;;;12.50;8.13;;;;;;;6.78;54.93;98155.09;5073488;28;20932;-72
2022/01/24 10:49:39;;;;;;;14.57;8.27;;;;;;;7.01;54.06;98155.25;5072004;28;20456;-71
2022/01/24 10:52:19;;;;;;;9.80;8.03;;;;;;;6.99;54.13;98158.00;5056348;28;21008;-70
2022/01/24 10:54:46;;;;;;;11.60;8.27;;;;;;;7.18;53.39;98147.09;5072605;28;20435;-70
2022/01/24 10:57:24;;;;;;;11.13;8.40;;;;;;;7.10;53.94;98148.59;5056995;28;20424;-71
2022/01/24 10:59:51;;;;;;;10.23;7.77;;;;;;;7.07;54.18;98144.41;5060058;28;20425;-70
2022/01/24 11:02:17;;;;;;;9.30;7.93;;;;;;;6.67;54.65;98140.19;5052035;28;20547;-72
2022/01/24 11:04:43;;;;;;;11.93;8.70;;;;;;;6.66;54.99;98140.28;5059010;28;20420;-71
2022/01/24 11:07:09;;;;;;;11.60;8.20;;;;;;;6.96;54.54;98136.50;5069925;28;20473;-73
2022/01/24 11:09:41;;;;;;;13.23;8.27;;;;;;;7.16;53.61;98141.16;5059046;28;21007;-69
2022/01/24 11:12:11;;;;;;;10.73;8.33;;;;;;;6.96;53.90;98134.75;5064153;28;20588;-71
2022/01/24 11:14:44;;;;;;;12.37;7.43;;;;;;;7.48;52.88;98130.22;5072800;28;20439;-70
2022/01/24 11:17:13;;;;;;;9.80;7.50;;;;;;;7.52;52.37;98129.06;5074799;28;20511;-71
2022/01/24 11:19:46;;;;;;;15.60;8.40;;;;;;;7.73;52.82;98119.78;5068081;28;20586;-72
2022/01/24 11:22:20;;;;;;;9.77;7.23;;;;;;;7.54;52.85;98121.09;5069740;28;20444;-70
2022/01/24 11:24:53;;;;;;;12.70;8.13;;;;;;;7.36;53.29;98118.91;5073227;28;20488;-71
2022/01/24 11:27:20;;;;;;;9.90;7.73;;;;;;;7.69;51.76;98125.22;5072157;28;21011;-71
2022/01/24 11:29:45;;;;;;;10.40;7.90;;;;;;;7.32;52.87;98124.41;5067518;28;20514;-69
2022/01/24 11:32:19;;;;;;;11.03;7.63;;;;;;;7.76;52.26;98128.22;5043565;28;20557;-72
2022/01/24 11:34:50;;;;;;;10.47;7.20;;;;;;;7.74;52.40;98127.50;5072423;28;20197;-71
2022/01/24 11:37:34;;;;;;;7.10;6.40;;;;;;;7.91;51.56;98122.81;5065662;28;20950;-69
2022/01/24 11:40:00;;;;;;;10.10;7.50;;;;;;;8.06;51.40;98121.69;5072800;28;20436;-71
2022/01/24 11:42:30;;;;;;;8.03;6.30;;;;;;;8.22;50.40;98120.53;5072721;28;20433;-72
2022/01/24 11:44:59;;;;;;;14.67;8.60;;;;;;;8.22;50.95;98124.00;5073217;28;20792;-70
2022/01/24 11:47:26;;;;;;;11.20;7.37;;;;;;;8.34;50.59;98118.78;5072657;28;20428;-73
2022/01/24 11:49:53;;;;;;;11.13;7.80;;;;;;;8.01;51.45;98121.19;5055447;28;20425;-71
2022/01/24 11:52:29;;;;;;;15.20;9.73;;;;;;;8.38;50.62;98128.88;5073557;28;20471;-70
2022/01/24 11:55:30;;;;;;;8.77;7.47;;;;;;;8.13;50.60;98122.91;5072082;28;20436;-71
2022/01/24 11:58:06;;;;;;;15.83;10.03;;;;;;;8.40;51.00;98129.63;5072538;28;20424;-74
2022/01/24 12:00:44;;;;;;;11.10;7.80;;;;;;;8.45;50.65;98124.84;5058202;28;20473;-71
2022/01/24 12:03:23;;;;;;;18.23;11.63;;;;;;;8.28;50.80;98120.09;5072977;28;20463;-69
2022/01/24 12:05:53;;;;;;;11.63;8.80;;;;;;;8.28;51.29;98120.09;5070829;28;20475;-71
2022/01/24 12:08:41;;;;;;;8.50;6.80;;;;;;;8.61;50.60;98118.50;5070195;28;20460;-71
2022/01/24 12:11:24;;;;;;;14.57;8.23;;;;;;;8.64;49.82;98105.19;5071388;28;20428;-71
2022/01/24 12:13:53;;;;;;;10.10;7.83;;;;;;;8.71;49.58;98102.94;5071325;28;20424;-72
2022/01/24 12:16:22;;;;;;;14.37;8.80;;;;;;;8.76;49.53;98104.25;5071105;28;20436;-72
2022/01/24 12:18:51;;;;;;;9.20;7.30;;;;;;;8.98;48.90;98107.00;5050371;28;20429;-73
2022/01/24 12:21:21;;;;;;;10.30;6.70;;;;;;;9.41;47.88;98108.81;5072594;28;20444;-71
2022/01/24 12:23:49;;;;;;;11.13;7.40;;;;;;;9.64;46.96;98100.91;5067216;28;20995;-71
2022/01/24 12:26:14;;;;;;;8.53;7.20;;;;;;;9.28;47.96;98101.13;5070218;28;20451;-71
2022/01/24 12:28:43;;;;;;;7.97;6.70;;;;;;;9.05;48.27;98095.06;5073178;28;20428;-73
2022/01/24 12:31:29;;;;;;;11.20;7.17;;;;;;;8.91;49.19;98086.53;5066628;28;20253;-70
2022/01/24 12:33:55;;;;;;;7.60;6.90;;;;;;;9.64;47.53;98083.41;5067824;28;20440;-71
2022/01/24 12:36:49;;;;;;;7.70;6.17;;;;;;;9.91;46.64;98079.47;5065430;28;20433;-72
2022/01/24 12:39:23;;;;;;;11.23;7.40;;;;;;;10.22;46.20;98076.09;5071110;28;20548;-73
2022/01/24 12:41:57;;;;;;;9.50;7.17;;;;;;;9.46;47.61;98085.72;5040029;28;20768;-70
2022/01/24 12:47:00;;;;;;;7.20;6.47;;;;;;;9.80;46.92;98077.75;5073281;28;20428;-72
2022/01/24 12:49:30;;;;;;;9.07;6.63;;;;;;;9.63;46.45;98071.28;5072533;28;20469;-72
2022/01/24 12:51:59;;;;;;;12.77;6.30;;;;;;;9.70;46.42;98062.94;5064093;28;21021;-71
2022/01/24 12:54:29;;;;;;;9.93;6.27;;;;;;;9.99;47.26;98066.56;5055096;28;20426;-71
2022/01/24 12:57:04;;;;;;;7.97;6.10;;;;;;;10.06;46.09;98068.69;5052410;28;20438;-71
2022/01/24 12:59:29;;;;;;;11.67;6.60;;;;;;;10.65;45.58;98067.22;5059889;28;20427;-71
2022/01/24 13:01:57;;;;;;;11.40;6.50;;;;;;;11.35;43.53;98069.09;5073911;28;20444;-71
2022/01/24 13:04:40;;;;;;;12.30;5.80;;;;;;;12.01;41.70;98059.72;5058661;28;20177;-70
2022/01/24 13:07:07;;;;;;;22.90;5.20;;;;;;;12.35;41.24;98047.91;5054870;28;20430;-71
2022/01/24 13:09:35;;;;;;;7.80;5.30;;;;;;;12.56;40.89;98048.50;5063965;28;20480;-70
2022/01/24 13:12:04;;;;;;;6.80;5.10;;;;;;;12.25;41.06;98055.81;5059318;28;20539;-70
2022/01/24 13:14:43;;;;;;;9.20;5.27;;;;;;;11.89;41.59;98050.31;5061965;28;20424;-69
2022/01/24 13:25:29;;;;;;;9.83;6.33;;;;;;;13.23;39.11;98039.59;5073542;28;20916;-69
2022/01/24 13:28:11;;;;;;;11.13;5.90;;;;;;;12.94;39.84;98029.22;5074572;28;20528;-71
2022/01/24 13:30:42;;;;;;;8.63;5.67;;;;;;;13.18;39.03;98032.13;5076243;28;20501;-68
2022/01/24 13:33:14;;;;;;;12.50;6.80;;;;;;;14.32;36.96;98028.97;5083554;28;20493;-71
2022/01/24 13:35:40;;;;;;;10.77;7.00;;;;;;;15.20;35.32;98028.69;5051539;28;21315;-72
2022/01/24 13:38:14;;;;;;;9.67;6.77;;;;;;;15.36;34.44;98032.34;5080696;28;20428;-72